WetterOnline ( https://www.wetteronline.de )

Wetter aktuell Traunstein

Aktuelles Wetter: Chieming (553m)

6-stündlich | Neueste Meldungen
Ortszeit Temperatur Wetter
Do, 13.06. 14:00 11.7° C leichter Regen
Do, 13.06. 8:00 11.8° C bedeckt
Do, 13.06. 2:00 9.9° C bedeckt
Mi, 12.06. 20:00 14.1° C bewölkt
Mi, 12.06. 14:00 14.9° C wolkig
Mi, 12.06. 8:00 7.9° C leichter Regen
Mi, 12.06. 2:00 9.6° C bewölkt
Di, 11.06. 20:00 10.9° C Regen
Ortszeit Temperatur Wetter
Do, 13.06. 19:30 14.9° C leicht bewölkt
Do, 13.06. 19:20 14.9° C leicht bewölkt
Do, 13.06. 19:10 15.0° C fast wolkenlos
Do, 13.06. 19:00 15.5° C leicht bewölkt
Do, 13.06. 18:50 15.5° C leicht bewölkt
Do, 13.06. 18:40 15.9° C fast wolkenlos
Do, 13.06. 18:30 15.9° C wolkig
Do, 13.06. 18:00 15.3° C wolkenlos
Do, 13.06. 17:30 15.9° C leicht bewölkt
Do, 13.06. 17:00 14.9° C bewölkt
Do, 13.06. 16:30 15.2° C leicht bewölkt
Ortszeit Relative Feuchte Sichtweite
Do, 13.06. 14:00 75% 23 km
Do, 13.06. 8:00 74% >70 km
Do, 13.06. 2:00 88% >70 km
Mi, 12.06. 20:00 62% >70 km
Mi, 12.06. 14:00 55% >70 km
Mi, 12.06. 8:00 90% 50 km
Mi, 12.06. 2:00 92% 35 km
Di, 11.06. 20:00 86% 13 km
Ortszeit Relative Feuchte Sichtweite
Do, 13.06. 19:30 62% >70 km
Do, 13.06. 19:20 62% -
Do, 13.06. 19:10 60% -
Do, 13.06. 19:00 59% >70 km
Do, 13.06. 18:50 59% -
Do, 13.06. 18:40 53% -
Do, 13.06. 18:30 54% 45 km
Do, 13.06. 18:00 58% >70 km
Do, 13.06. 17:30 63% >70 km
Do, 13.06. 17:00 66% 60 km
Do, 13.06. 16:30 57% 50 km
Ortszeit Niederschlagsmenge Niederschlagsart
Do, 13.06. 14:00 0.1 l/m2 in 6 Std. Regen
Do, 13.06. 8:00 0.0 l/m2 in 12 Std. -
Do, 13.06. 2:00 0.0 l/m2 in 6 Std. -
Mi, 12.06. 20:00 0.1 l/m2 in 12 Std. -
Mi, 12.06. 14:00 0.1 l/m2 in 6 Std. Regen
Mi, 12.06. 8:00 6 l/m2 in 12 Std. Regen
Mi, 12.06. 2:00 4 l/m2 in 6 Std. Regen
Di, 11.06. 20:00 2 l/m2 in 12 Std. Regen
Ortszeit Niederschlagsmenge Niederschlagsart
Do, 13.06. 19:30 0.0 l/m2 in 30 Min -
Do, 13.06. 19:20 keine Meldung -
Do, 13.06. 19:10 keine Meldung -
Do, 13.06. 19:00 0.0 l/m2 in 1 Std. -
Do, 13.06. 18:50 keine Meldung -
Do, 13.06. 18:40 keine Meldung -
Do, 13.06. 18:30 0.0 l/m2 in 30 Min -
Do, 13.06. 18:00 0.0 l/m2 in 1 Std. -
Do, 13.06. 17:30 0.0 l/m2 in 30 Min -
Do, 13.06. 17:00 0.0 l/m2 in 1 Std. Regen
Do, 13.06. 16:30 0.0 l/m2 in 30 Min -
Ortszeit Stärke Spitze Richtung
km/h Bft. km/h Grad Sektor
Do, 13.06. 14:00 35 5 52 240° SW
Do, 13.06. 8:00 9 2 17 240° SW
Do, 13.06. 2:00 6 1 15 100° O
Mi, 12.06. 20:00 9 2 26 100° O
Mi, 12.06. 14:00 15 3 22 70° O
Mi, 12.06. 8:00 13 3 22 160° S
Mi, 12.06. 2:00 4 1 22 10° N
Di, 11.06. 20:00 6 1 13 130° SO
Ortszeit Stärke Spitze Richtung
km/h Bft. km/h Grad Sektor
Do, 13.06. 19:30 9 2 15 210° SW
Do, 13.06. 19:20 9 2 - 210° SW
Do, 13.06. 19:10 11 2 - 220° SW
Do, 13.06. 19:00 14 3 22 200° S
Do, 13.06. 18:50 14 3 - 200° S
Do, 13.06. 18:40 14 3 - 220° SW
Do, 13.06. 18:30 11 2 18 210° SW
Do, 13.06. 18:00 17 3 22 200° S
Do, 13.06. 17:30 13 3 22 210° SW
Do, 13.06. 17:00 18 3 29 250° W
Do, 13.06. 16:30 11 2 18 230° SW
Ortszeit Untergrenze Bedeckung Gattung
total tief tief mittel hoch
Do, 13.06. 14:00 870 m 8/8 6/8 - - -
Do, 13.06. 8:00 3000 m 8/8 8/8 - - -
Do, 13.06. 2:00 2400 m 8/8 8/8 - - -
Mi, 12.06. 20:00 2700 m 8/8 4/8 - - -
Mi, 12.06. 14:00 1230 m 8/8 3/8 - - -
Mi, 12.06. 8:00 1800 m 7/8 7/8 - - -
Mi, 12.06. 2:00 2100 m 7/8 6/8 - - -
Di, 11.06. 20:00 510 m 8/8 8/8 - - -
Ortszeit Bedeckungsgrad in Achtel und Wolkenuntergrenze
Do, 13.06. 19:30 2(2100m)
Do, 13.06. 19:20 2(2100m)
Do, 13.06. 19:10 1
Do, 13.06. 19:00 2(2700m)
Do, 13.06. 18:50 2(2700m)
Do, 13.06. 18:40 1
Do, 13.06. 18:30 5(2700m)
Do, 13.06. 18:00 keine Wolken
Do, 13.06. 17:30 2(2700m)
Do, 13.06. 17:00 7(2400m)
Do, 13.06. 16:30 4(2700m)
Ortszeit Luftdruck NN (hPa) Tendenz (hPa in 3 Std.)
Do, 13.06. 14:00 1018 0,0
Do, 13.06. 8:00 1018 + 0,7
Do, 13.06. 2:00 1018 - 0,1
Mi, 12.06. 20:00 1016 - 0,4
Mi, 12.06. 14:00 1018 - 0,6
Mi, 12.06. 8:00 1020 + 0,5
Mi, 12.06. 2:00 1019 + 0,2
Di, 11.06. 20:00 1017 + 0,2
Ortszeit Luftdruck NN (hPa) Tendenz (hPa in 3 Std.)
Do, 13.06. 19:30 1017 - 0,4
Do, 13.06. 19:20 1017 keine Meldung
Do, 13.06. 19:10 1017 keine Meldung
Do, 13.06. 19:00 1017 - 0,4
Do, 13.06. 18:50 1017 keine Meldung
Do, 13.06. 18:40 1017 keine Meldung
Do, 13.06. 18:30 1017 - 0,4
Do, 13.06. 18:00 1017 - 0,5
Do, 13.06. 17:30 1017 - 0,5
Do, 13.06. 17:00 1017 + 0,2
Do, 13.06. 16:30 1018 + 0,6
Ortszeit Schneehöhe (cm)
Do, 13.06. 14:00 0
Do, 13.06. 8:00 0
Do, 13.06. 2:00 0
Mi, 12.06. 20:00 0
Mi, 12.06. 14:00 0
Mi, 12.06. 8:00 0
Mi, 12.06. 2:00 0
Di, 11.06. 20:00 0
Ortszeit Schneehöhe (cm)
Do, 13.06. 19:30 0
Do, 13.06. 19:20 0
Do, 13.06. 19:10 -
Do, 13.06. 19:00 0
Do, 13.06. 18:50 0
Do, 13.06. 18:40 -
Do, 13.06. 18:30 0
Do, 13.06. 18:00 0
Do, 13.06. 17:30 0
Do, 13.06. 17:00 0
Do, 13.06. 16:30 0
Link zu dieser Seite / Seite empfehlen

Das Wetter in ...